createdAt,value
2022-12-07T00:01:49.308Z,62.00
2022-12-07T00:04:20.261Z,68.33
2022-12-07T00:06:53.875Z,57.50
2022-12-07T00:09:23.117Z,62.50
2022-12-07T00:11:53.272Z,68.00
2022-12-07T00:14:23.155Z,69.67
2022-12-07T00:16:53.596Z,69.33
2022-12-07T00:19:23.174Z,71.33
2022-12-07T00:21:52.619Z,60.00
2022-12-07T00:24:22.209Z,63.00
2022-12-07T00:26:50.889Z,65.00
2022-12-07T00:29:23.486Z,62.33
2022-12-07T00:31:53.042Z,63.33
2022-12-07T00:34:23.654Z,62.00
2022-12-07T00:36:52.482Z,65.50
2022-12-07T00:39:21.238Z,61.00
2022-12-07T00:41:49.059Z,65.50
2022-12-07T00:44:18.473Z,68.67
2022-12-07T00:46:47.578Z,68.00
2022-12-07T00:49:16.284Z,64.50
2022-12-07T00:51:44.962Z,72.50
2022-12-07T00:54:13.627Z,63.00
2022-12-07T00:56:43.335Z,62.33
2022-12-07T00:59:16.159Z,60.00
2022-12-07T01:01:45.731Z,63.00
2022-12-07T01:04:14.464Z,62.50
2022-12-07T01:06:43.121Z,55.50
2022-12-07T01:09:11.855Z,62.50
2022-12-07T01:11:40.608Z,54.50
2022-12-07T01:14:10.504Z,62.00
2022-12-07T01:16:41.316Z,56.50
2022-12-07T01:19:10.229Z,63.00
2022-12-07T01:21:40.859Z,60.00
2022-12-07T01:24:12.355Z,55.00
2022-12-07T01:26:42.236Z,60.00
2022-12-07T01:29:11.023Z,64.00
2022-12-07T01:31:40.451Z,66.00
2022-12-07T01:34:10.612Z,62.00
2022-12-07T01:36:39.354Z,51.00
2022-12-07T01:39:10.478Z,59.00
2022-12-07T01:41:41.793Z,60.50
2022-12-07T01:44:33.900Z,57.33
2022-12-07T01:47:06.179Z,62.33
2022-12-07T01:49:47.999Z,56.50
2022-12-07T01:52:32.934Z,58.00
2022-12-07T01:55:12.067Z,64.00
2022-12-07T01:57:48.922Z,68.33
2022-12-07T02:00:19.174Z,57.50
2022-12-07T02:03:17.585Z,66.00
2022-12-07T02:05:49.437Z,98.67
2022-12-07T02:08:20.103Z,79.00
2022-12-07T02:10:48.950Z,64.50
2022-12-07T02:13:27.931Z,78.33
2022-12-07T02:16:45.888Z,65.00
2022-12-07T02:20:25.277Z,79.33
2022-12-07T02:23:54.449Z,72.00
2022-12-07T02:27:05.264Z,120.00
2022-12-07T02:30:14.043Z,72.00
2022-12-07T02:33:00.477Z,77.00
2022-12-07T02:35:43.975Z,67.00
2022-12-07T02:38:37.436Z,63.00
2022-12-07T02:41:13.148Z,62.00
2022-12-07T02:43:56.860Z,59.50
2022-12-07T02:46:34.927Z,55.00
2022-12-07T02:49:05.013Z,63.50
2022-12-07T02:51:35.534Z,65.00
2022-12-07T02:54:08.913Z,68.00
2022-12-07T02:56:45.272Z,55.00
2022-12-07T02:59:33.795Z,61.00
2022-12-07T03:02:45.841Z,65.33
2022-12-07T03:05:26.475Z,65.50
2022-12-07T03:09:01.363Z,55.50
2022-12-07T03:11:50.297Z,69.00
2022-12-07T03:14:25.010Z,63.50
2022-12-07T03:17:07.197Z,61.50
2022-12-07T03:19:37.767Z,71.00
2022-12-07T03:22:13.701Z,71.00
2022-12-07T03:24:55.619Z,72.50
2022-12-07T03:27:36.775Z,67.33
2022-12-07T03:30:16.339Z,59.00
2022-12-07T03:33:03.244Z,60.00
2022-12-07T03:35:45.231Z,70.33
2022-12-07T03:38:53.819Z,65.00
2022-12-07T03:41:34.013Z,64.50
2022-12-07T03:44:03.107Z,67.50
2022-12-07T03:46:58.605Z,67.33
2022-12-07T03:49:56.629Z,60.50
2022-12-07T03:52:49.171Z,65.33
2022-12-07T03:55:29.568Z,63.50
2022-12-07T03:58:06.884Z,65.50
2022-12-07T04:00:37.227Z,63.33
2022-12-07T04:03:06.763Z,64.00
2022-12-07T04:05:37.404Z,65.33
2022-12-07T04:08:06.477Z,61.50
2022-12-07T04:10:36.480Z,67.67
2022-12-07T04:13:05.944Z,69.00
2022-12-07T04:15:34.625Z,68.50
2022-12-07T04:18:03.445Z,48.50
2022-12-07T04:20:32.956Z,64.67
2022-12-07T04:23:01.579Z,65.00
2022-12-07T04:25:31.003Z,65.00
2022-12-07T04:27:59.741Z,62.00
2022-12-07T04:30:29.220Z,69.33
2022-12-07T04:32:58.694Z,70.00
2022-12-07T04:35:28.167Z,64.67
2022-12-07T04:37:57.575Z,67.00
2022-12-07T04:40:26.231Z,63.50
2022-12-07T04:42:54.860Z,57.00
2022-12-07T04:45:23.557Z,68.50
2022-12-07T04:47:53.033Z,76.67
2022-12-07T04:50:21.715Z,62.50
2022-12-07T04:52:51.480Z,74.00
2022-12-07T04:55:20.919Z,71.00
2022-12-07T04:57:50.384Z,74.00
2022-12-07T05:00:20.368Z,75.00
2022-12-07T05:02:49.860Z,72.67
2022-12-07T05:05:19.336Z,79.00
2022-12-07T05:07:48.029Z,78.00
2022-12-07T05:10:18.663Z,72.00
2022-12-07T05:12:47.452Z,63.50
2022-12-07T05:15:17.742Z,73.67
2022-12-07T05:17:47.191Z,71.00
2022-12-07T05:20:16.696Z,71.67
2022-12-07T05:22:46.135Z,74.33
2022-12-07T05:25:15.810Z,75.67
2022-12-07T05:27:45.287Z,72.67
2022-12-07T05:30:15.077Z,70.00
2022-12-07T05:32:44.565Z,72.00
2022-12-07T05:35:14.030Z,69.67
2022-12-07T05:37:43.573Z,67.67
2022-12-07T05:40:15.608Z,73.00
2022-12-07T05:42:44.382Z,65.50
2022-12-07T05:45:13.944Z,75.33
2022-12-07T05:47:43.382Z,73.67
2022-12-07T05:50:12.879Z,66.00
2022-12-07T05:52:42.424Z,69.00
2022-12-07T05:55:11.922Z,72.67
2022-12-07T05:57:40.624Z,61.50
2022-12-07T06:00:11.661Z,73.33
2022-12-07T06:02:41.249Z,65.67
2022-12-07T06:05:10.818Z,65.00
2022-12-07T06:07:40.337Z,67.67
2022-12-07T06:10:09.918Z,61.50
2022-12-07T06:12:40.565Z,70.33
2022-12-07T06:15:11.449Z,64.33
2022-12-07T06:17:41.829Z,63.33
2022-12-07T06:20:11.557Z,64.33
2022-12-07T06:22:40.243Z,62.50
2022-12-07T06:25:10.996Z,61.00
2022-12-07T06:27:40.468Z,72.33
2022-12-07T06:30:10.560Z,71.33
2022-12-07T06:32:40.086Z,72.33
2022-12-07T06:35:09.845Z,68.67
2022-12-07T06:37:38.560Z,61.00
2022-12-07T06:40:09.095Z,65.67
2022-12-07T06:42:37.791Z,61.00
2022-12-07T06:45:06.593Z,61.00
2022-12-07T06:47:41.306Z,53.50
2022-12-07T06:50:11.253Z,58.50
2022-12-07T06:52:39.918Z,66.00
2022-12-07T06:55:09.668Z,66.00
2022-12-07T06:57:38.355Z,67.00
2022-12-07T07:00:08.987Z,68.00
2022-12-07T07:02:38.546Z,72.33
2022-12-07T07:05:08.726Z,60.67
2022-12-07T07:07:58.033Z,62.33
2022-12-07T07:10:26.856Z,58.00
2022-12-07T07:12:57.485Z,50.00
2022-12-07T07:15:26.911Z,53.50
2022-12-07T07:17:56.507Z,62.00
2022-12-07T07:20:26.237Z,62.00
2022-12-07T07:22:58.387Z,55.50
2022-12-07T07:25:27.104Z,58.00
2022-12-07T07:27:56.592Z,62.00
2022-12-07T07:30:26.802Z,60.67
2022-12-07T07:33:03.030Z,67.33
2022-12-07T07:35:35.546Z,64.00
2022-12-07T07:38:04.368Z,60.00
2022-12-07T07:40:33.832Z,64.67
2022-12-07T07:43:02.690Z,64.00
2022-12-07T07:45:31.430Z,60.00
2022-12-07T07:48:00.935Z,71.33
2022-12-07T07:50:30.472Z,72.33
2022-12-07T07:53:00.075Z,71.00
2022-12-07T07:55:29.957Z,69.67
2022-12-07T07:57:59.442Z,69.00
2022-12-07T08:00:29.250Z,63.00
2022-12-07T08:02:58.726Z,75.00
2022-12-07T08:05:27.505Z,58.50
2022-12-07T08:07:58.465Z,63.33
2022-12-07T08:10:27.923Z,63.00
2022-12-07T08:13:12.146Z,68.33
2022-12-07T08:15:46.351Z,68.33
2022-12-07T08:18:17.135Z,67.33
2022-12-07T08:20:45.934Z,53.50
2022-12-07T08:23:14.587Z,57.00
2022-12-07T08:25:43.264Z,63.00
2022-12-07T08:28:11.932Z,53.50
2022-12-07T08:30:40.710Z,58.50
2022-12-07T08:33:11.320Z,58.50
2022-12-07T08:35:40.746Z,62.00
2022-12-07T08:38:09.521Z,57.00
2022-12-07T08:40:38.146Z,57.50
2022-12-07T08:43:07.592Z,58.67
2022-12-07T08:45:37.183Z,54.67
2022-12-07T08:48:13.683Z,56.50
2022-12-07T08:50:49.106Z,57.50
2022-12-07T08:53:18.879Z,63.00
2022-12-07T08:55:48.985Z,64.00
2022-12-07T08:58:18.744Z,68.33
2022-12-07T09:00:48.231Z,68.67
2022-12-07T09:03:16.900Z,61.00
2022-12-07T09:05:46.472Z,70.33
2022-12-07T09:08:16.411Z,60.33
2022-12-07T09:10:46.560Z,59.00
2022-12-07T09:13:16.199Z,59.33
2022-12-07T09:15:45.665Z,62.33
2022-12-07T09:18:15.484Z,61.67
2022-12-07T09:20:44.936Z,62.67
2022-12-07T09:23:14.405Z,67.67
2022-12-07T09:25:44.163Z,58.67
2022-12-07T09:28:13.597Z,65.00
2022-12-07T09:31:22.233Z,66.33
2022-12-07T09:33:40.433Z,65.00
2022-12-07T09:36:10.883Z,63.67
2022-12-07T09:38:40.341Z,64.33
2022-12-07T09:41:09.854Z,59.67
2022-12-07T09:43:42.180Z,57.00
2022-12-07T09:46:18.552Z,64.00
2022-12-07T09:48:51.100Z,60.00
2022-12-07T09:51:25.965Z,57.00
2022-12-07T09:54:00.026Z,60.67
2022-12-07T09:56:31.980Z,65.33
2022-12-07T09:59:04.041Z,65.00
2022-12-07T10:01:34.973Z,64.00
2022-12-07T10:04:23.650Z,65.33
2022-12-07T10:06:52.841Z,69.00
2022-12-07T10:09:23.898Z,64.67
2022-12-07T10:12:13.009Z,66.00
2022-12-07T10:15:18.660Z,67.67
2022-12-07T10:17:53.871Z,66.67
2022-12-07T10:20:27.932Z,68.67
2022-12-07T10:23:02.079Z,68.67
2022-12-07T10:25:39.314Z,73.67
2022-12-07T10:28:19.576Z,75.00
2022-12-07T10:31:20.673Z,62.00
2022-12-07T10:33:59.167Z,61.67
2022-12-07T10:36:39.308Z,62.67
2022-12-07T10:39:23.365Z,71.67
2022-12-07T10:42:01.380Z,74.00
2022-12-07T10:44:35.515Z,77.00
2022-12-07T10:47:35.078Z,75.00
2022-12-07T10:51:03.240Z,77.00
2022-12-07T10:53:41.162Z,67.67
2022-12-07T10:56:37.365Z,70.00
2022-12-07T10:59:15.659Z,77.67
2022-12-07T11:02:25.078Z,71.67
2022-12-07T11:05:30.706Z,71.00
2022-12-07T11:08:30.479Z,66.00
2022-12-07T11:11:18.378Z,63.33
2022-12-07T11:14:30.745Z,64.67
2022-12-07T11:18:01.598Z,51.67
2022-12-07T11:21:32.809Z,67.00
2022-12-07T11:24:25.569Z,67.33
2022-12-07T11:28:09.196Z,67.33
2022-12-07T11:31:22.199Z,59.67
2022-12-07T11:34:40.466Z,59.67
2022-12-07T11:37:21.151Z,56.67
2022-12-07T11:40:31.807Z,59.67
2022-12-07T11:43:26.384Z,51.67
2022-12-07T11:46:13.430Z,54.50
2022-12-07T11:49:49.027Z,51.50
2022-12-07T11:53:10.389Z,60.00
2022-12-07T11:55:58.943Z,58.33
2022-12-07T11:58:49.966Z,56.33
2022-12-07T12:01:47.325Z,54.33
2022-12-07T12:04:55.965Z,47.00
2022-12-07T12:11:23.092Z,56.50
2022-12-07T12:14:34.888Z,32.50
2022-12-07T12:17:57.542Z,54.00
2022-12-07T12:20:45.427Z,45.00
2022-12-07T12:23:46.315Z,61.33
2022-12-07T12:26:27.763Z,56.00
2022-12-07T12:29:09.834Z,54.00
2022-12-07T12:31:43.534Z,59.33
2022-12-07T12:34:50.705Z,48.50
2022-12-07T12:37:35.559Z,57.67
2022-12-07T12:40:16.781Z,55.67
2022-12-07T12:42:56.620Z,56.00
2022-12-07T12:45:35.599Z,53.00
2022-12-07T12:48:29.360Z,58.00
2022-12-07T12:51:59.137Z,59.67
2022-12-07T12:54:34.590Z,50.50
2022-12-07T12:57:32.712Z,57.00
2022-12-07T13:00:22.536Z,58.00
2022-12-07T13:02:56.919Z,59.67
2022-12-07T13:05:30.572Z,55.50
2022-12-07T13:08:33.503Z,49.67
2022-12-07T13:11:42.443Z,53.67
2022-12-07T13:14:41.653Z,50.00
2022-12-07T13:17:34.283Z,54.00
2022-12-07T13:20:12.819Z,58.50
2022-12-07T13:22:51.288Z,49.50
2022-12-07T13:25:35.219Z,55.00
2022-12-07T13:28:33.622Z,54.00
2022-12-07T13:31:17.824Z,48.50
2022-12-07T13:33:49.567Z,51.33
2022-12-07T13:36:32.751Z,51.00
2022-12-07T13:39:25.270Z,53.00
2022-12-07T13:41:58.021Z,52.00
2022-12-07T13:44:29.786Z,54.00
2022-12-07T13:47:23.071Z,54.00
2022-12-07T13:49:58.193Z,54.00
2022-12-07T13:52:32.025Z,66.00
2022-12-07T13:55:07.735Z,52.50
2022-12-07T13:57:38.048Z,56.00
2022-12-07T14:00:25.225Z,60.00
2022-12-07T14:03:03.795Z,85.00
2022-12-07T14:05:36.810Z,82.00
2022-12-07T14:08:15.540Z,73.50
2022-12-07T14:10:51.085Z,74.67
2022-12-07T14:13:40.337Z,69.67
2022-12-07T14:16:34.447Z,71.33
2022-12-07T14:19:23.242Z,69.67
2022-12-07T14:22:10.711Z,64.00
2022-12-07T14:24:46.589Z,66.33
2022-12-07T14:27:31.567Z,66.00
2022-12-07T14:30:05.718Z,62.33
2022-12-07T14:32:38.181Z,68.00
2022-12-07T14:35:16.236Z,70.00
2022-12-07T14:37:49.548Z,80.00
2022-12-07T14:40:31.227Z,77.67
2022-12-07T14:43:17.731Z,75.00
2022-12-07T14:45:47.692Z,85.33
2022-12-07T14:53:59.474Z,89.33
2022-12-07T14:56:29.112Z,77.33
2022-12-07T14:58:58.808Z,84.67
2022-12-07T15:01:28.319Z,83.00
2022-12-07T15:03:58.090Z,87.67
2022-12-07T15:06:27.750Z,90.33
2022-12-07T15:08:57.340Z,84.67
2022-12-07T15:11:26.923Z,84.00
2022-12-07T15:14:14.903Z,98.50
2022-12-07T15:17:07.812Z,72.67
2022-12-07T15:19:34.603Z,74.00
2022-12-07T15:22:04.128Z,82.33
2022-12-07T15:24:35.250Z,84.00
2022-12-07T15:27:06.268Z,120.00
2022-12-07T15:29:35.829Z,115.50
2022-12-07T15:32:06.636Z,110.00
2022-12-07T15:34:39.986Z,116.33
2022-12-07T15:37:09.688Z,150.50
2022-12-07T15:39:38.927Z,152.50
2022-12-07T15:42:09.691Z,139.50
2022-12-07T15:44:57.821Z,132.00
2022-12-07T15:47:28.245Z,119.75
2022-12-07T15:49:57.908Z,110.00
2022-12-07T15:52:27.584Z,109.67
2022-12-07T15:54:57.362Z,96.33
2022-12-07T15:57:28.363Z,97.67
2022-12-07T15:59:58.082Z,95.33
2022-12-07T16:02:28.282Z,103.00
2022-12-07T16:04:57.902Z,109.67
2022-12-07T16:07:27.509Z,102.00
2022-12-07T16:09:57.996Z,149.25
2022-12-07T16:12:26.369Z,125.50
2022-12-07T16:14:56.799Z,123.50
2022-12-07T16:17:27.320Z,130.00
2022-12-07T16:19:57.053Z,116.67
2022-12-07T16:22:26.729Z,111.33
2022-12-07T16:24:57.168Z,129.00
2022-12-07T16:27:28.457Z,141.00
2022-12-07T16:29:56.734Z,143.00
2022-12-07T16:32:25.838Z,165.00
2022-12-07T16:34:55.450Z,119.33
2022-12-07T16:37:26.241Z,144.25
2022-12-07T16:39:57.512Z,140.40
2022-12-07T16:42:28.120Z,126.50
2022-12-07T16:44:55.895Z,151.00
2022-12-07T16:47:25.462Z,128.00
2022-12-07T16:49:55.116Z,104.00
2022-12-07T16:52:24.720Z,96.00
2022-12-07T16:54:55.305Z,130.25
2022-12-07T16:57:24.055Z,159.50
2022-12-07T16:59:54.775Z,184.25
2022-12-07T17:02:22.694Z,228.50
2022-12-07T17:04:53.615Z,221.50
2022-12-07T17:07:23.289Z,230.50
2022-12-07T17:09:54.955Z,181.25
2022-12-07T17:12:26.586Z,121.25
2022-12-07T17:15:15.566Z,123.50
2022-12-07T17:17:47.189Z,142.50
2022-12-07T17:20:18.437Z,130.00
2022-12-07T17:22:49.926Z,156.50
2022-12-07T17:25:21.056Z,167.75
2022-12-07T17:27:51.385Z,173.50
2022-12-07T17:30:19.929Z,199.50
2022-12-07T17:32:54.740Z,188.75
2022-12-07T17:35:25.241Z,192.75
2022-12-07T17:37:57.142Z,174.50
2022-12-07T17:40:27.137Z,172.67
2022-12-07T17:42:56.766Z,171.25
2022-12-07T17:45:26.944Z,167.75
2022-12-07T17:47:56.596Z,180.00
2022-12-07T17:50:44.368Z,188.50
2022-12-07T17:53:14.240Z,211.75
2022-12-07T17:58:32.010Z,231.50
2022-12-07T18:01:01.802Z,256.33
2022-12-07T18:03:32.382Z,289.75
2022-12-07T18:06:02.673Z,233.75
2022-12-07T18:08:38.932Z,240.00
2022-12-07T18:11:09.482Z,195.00
2022-12-07T18:13:39.199Z,214.25
2022-12-07T18:16:24.120Z,206.50
2022-12-07T18:18:54.550Z,206.50
2022-12-07T18:21:27.221Z,207.00
2022-12-07T18:24:03.482Z,195.50
2022-12-07T18:26:37.986Z,171.00
2022-12-07T18:29:08.493Z,173.50
2022-12-07T18:31:39.205Z,183.00
2022-12-07T18:34:14.025Z,179.25
2022-12-07T18:36:48.416Z,177.50
2022-12-07T18:39:18.907Z,201.50
2022-12-07T18:41:49.517Z,203.50
2022-12-07T18:44:17.877Z,194.00
2022-12-07T18:46:48.287Z,173.33
2022-12-07T18:49:18.819Z,177.00
2022-12-07T18:51:48.435Z,178.00
2022-12-07T18:54:19.842Z,175.29
2022-12-07T18:56:49.540Z,185.25
2022-12-07T18:59:37.411Z,190.25
2022-12-07T19:02:07.243Z,191.50
2022-12-07T19:04:36.831Z,167.67
2022-12-07T19:07:07.362Z,183.75
2022-12-07T19:09:35.433Z,205.00
2022-12-07T19:12:06.671Z,180.50
2022-12-07T19:14:39.232Z,165.00
2022-12-07T19:17:13.737Z,210.75
2022-12-07T19:19:47.582Z,204.75
2022-12-07T19:22:21.630Z,181.75
2022-12-07T19:24:55.122Z,178.25
2022-12-07T19:27:25.735Z,180.33
2022-12-07T19:29:56.622Z,203.33
2022-12-07T19:32:28.161Z,193.67
2022-12-07T19:34:58.628Z,135.33
2022-12-07T19:37:28.312Z,123.67
2022-12-07T19:39:58.779Z,125.50
2022-12-07T19:42:30.173Z,132.00
2022-12-07T19:44:59.911Z,118.33
2022-12-07T19:47:31.771Z,118.67
2022-12-07T19:50:01.364Z,109.00
2022-12-07T19:52:36.375Z,117.67
2022-12-07T19:55:07.211Z,101.33
2022-12-07T19:57:36.875Z,104.00
2022-12-07T20:00:09.848Z,104.00
2022-12-07T20:02:39.486Z,97.33
2022-12-07T20:05:10.192Z,102.00
2022-12-07T20:07:40.054Z,92.33
2022-12-07T20:10:10.987Z,93.67
2022-12-07T20:12:59.163Z,91.00
2022-12-07T20:15:28.630Z,78.33
2022-12-07T20:17:58.135Z,86.67
2022-12-07T20:20:27.617Z,91.33
2022-12-07T20:22:57.199Z,87.67
2022-12-07T20:25:27.156Z,93.67
2022-12-07T20:27:56.888Z,101.33
2022-12-07T20:30:26.565Z,97.00
2022-12-07T20:32:56.316Z,100.00
2022-12-07T20:35:26.758Z,138.25
2022-12-07T20:37:57.246Z,152.75
2022-12-07T20:40:27.676Z,177.50
2022-12-07T20:42:57.267Z,180.25
2022-12-07T20:45:26.909Z,153.25
2022-12-07T20:47:57.558Z,159.50
2022-12-07T20:50:28.042Z,152.50
2022-12-07T20:53:00.566Z,122.33
2022-12-07T20:55:30.550Z,120.33
2022-12-07T20:58:00.349Z,117.00
2022-12-07T21:00:29.971Z,111.00
2022-12-07T21:03:00.482Z,134.75
2022-12-07T21:05:30.506Z,114.00
2022-12-07T21:08:00.198Z,123.67
2022-12-07T21:10:30.154Z,110.33
2022-12-07T21:13:00.590Z,131.25
2022-12-07T21:15:30.208Z,112.33
2022-12-07T21:18:05.778Z,256.67
2022-12-07T21:20:37.843Z,200.00
2022-12-07T21:23:08.398Z,173.00
2022-12-07T21:25:38.904Z,188.50
2022-12-07T21:28:09.358Z,179.50
2022-12-07T21:31:05.099Z,167.75
2022-12-07T21:33:31.705Z,155.00
2022-12-07T21:36:05.183Z,151.50
2022-12-07T21:38:35.045Z,122.67
2022-12-07T21:41:19.655Z,130.00
2022-12-07T21:43:50.230Z,122.33
2022-12-07T21:46:25.758Z,117.00
2022-12-07T21:49:05.517Z,102.00
2022-12-07T21:51:35.494Z,90.33
2022-12-07T21:54:06.301Z,101.00
2022-12-07T21:56:40.133Z,96.00
2022-12-07T21:59:15.460Z,97.33
2022-12-07T22:01:47.493Z,91.33
2022-12-07T22:04:25.274Z,90.00
2022-12-07T22:06:57.356Z,94.00
2022-12-07T22:09:27.839Z,82.67
2022-12-07T22:11:57.376Z,81.67
2022-12-07T22:14:48.518Z,96.33
2022-12-07T22:17:18.114Z,93.00
2022-12-07T22:19:47.607Z,87.33
2022-12-07T22:22:17.055Z,89.00
2022-12-07T22:24:48.297Z,90.00
2022-12-07T22:27:18.301Z,86.33
2022-12-07T22:29:47.808Z,92.00
2022-12-07T22:32:47.189Z,84.33
2022-12-07T22:35:07.189Z,81.33
2022-12-07T22:37:36.711Z,75.33
2022-12-07T22:40:07.669Z,79.00
2022-12-07T22:42:35.467Z,69.00
2022-12-07T22:45:05.684Z,76.33
2022-12-07T22:47:35.368Z,74.00
2022-12-07T22:50:07.199Z,67.00
2022-12-07T22:52:35.896Z,70.50
2022-12-07T22:55:06.538Z,78.00
2022-12-07T22:57:36.241Z,71.33
2022-12-07T23:00:09.189Z,67.00
2022-12-07T23:02:38.714Z,72.00
2022-12-07T23:05:09.099Z,74.33
2022-12-07T23:07:39.108Z,74.00
2022-12-07T23:10:09.035Z,65.50
2022-12-07T23:12:58.883Z,69.00
2022-12-07T23:15:27.577Z,70.50
2022-12-07T23:17:57.076Z,71.33
2022-12-07T23:20:26.646Z,68.33
2022-12-07T23:22:56.229Z,73.00
2022-12-07T23:25:25.653Z,67.33
2022-12-07T23:27:55.131Z,74.00
2022-12-07T23:30:24.595Z,77.67
2022-12-07T23:32:54.047Z,74.67
2022-12-07T23:35:23.539Z,76.00
2022-12-07T23:37:53.004Z,74.00
2022-12-07T23:40:22.469Z,78.33
2022-12-07T23:42:52.063Z,77.00
2022-12-07T23:45:21.548Z,80.00
2022-12-07T23:47:51.043Z,78.33
2022-12-07T23:50:20.519Z,75.00
2022-12-07T23:52:50.149Z,75.33
2022-12-07T23:55:19.727Z,80.33
2022-12-07T23:57:49.231Z,84.00
